createdAt,value
2023-03-06T00:01:25.301Z,98032.02
2023-03-06T00:04:14.135Z,98033.23
2023-03-06T00:07:03.180Z,98032.83
2023-03-06T00:09:52.280Z,98032.09
2023-03-06T00:12:41.447Z,98032.98
2023-03-06T00:15:30.336Z,98030.42
2023-03-06T00:18:19.187Z,98023.80
2023-03-06T00:21:08.829Z,98025.71
2023-03-06T00:23:58.440Z,98025.23
2023-03-06T00:26:47.221Z,98024.68
2023-03-06T00:29:36.893Z,98027.70
2023-03-06T00:32:26.823Z,98028.13
2023-03-06T00:35:17.065Z,98023.17
2023-03-06T00:38:05.832Z,98023.11
2023-03-06T00:40:54.842Z,98023.48
2023-03-06T00:43:43.590Z,98020.23
2023-03-06T00:46:33.104Z,98015.93
2023-03-06T00:49:21.735Z,98017.50
2023-03-06T00:52:11.013Z,98017.27
2023-03-06T00:55:00.484Z,98014.23
2023-03-06T00:57:49.632Z,98012.27
2023-03-06T01:00:38.638Z,98009.45
2023-03-06T01:03:28.444Z,98009.72
2023-03-06T01:06:17.579Z,98009.20
2023-03-06T01:09:06.674Z,98008.41
2023-03-06T01:11:55.994Z,98002.30
2023-03-06T01:14:45.729Z,98002.02
2023-03-06T01:17:34.573Z,97997.75
2023-03-06T01:20:25.206Z,98001.84
2023-03-06T01:23:14.277Z,97999.79
2023-03-06T01:26:04.154Z,97997.75
2023-03-06T01:28:52.872Z,97996.17
2023-03-06T01:31:41.886Z,97991.96
2023-03-06T01:34:30.888Z,97992.69
2023-03-06T01:37:20.013Z,97991.09
2023-03-06T01:40:10.732Z,97991.90
2023-03-06T01:43:29.141Z,97990.78
2023-03-06T01:46:32.836Z,97986.58
2023-03-06T01:49:28.930Z,97995.09
2023-03-06T01:52:21.927Z,97992.89
2023-03-06T01:55:16.322Z,97990.52
2023-03-06T01:58:09.025Z,97987.41
2023-03-06T02:05:59.472Z,97980.47
2023-03-06T02:08:51.675Z,97981.52
2023-03-06T02:11:44.368Z,97981.25
2023-03-06T02:14:33.202Z,97975.23
2023-03-06T02:17:23.582Z,97977.65
2023-03-06T02:20:22.811Z,97976.59
2023-03-06T02:23:23.293Z,97976.64
2023-03-06T02:26:12.448Z,97973.63
2023-03-06T02:29:01.305Z,97967.00
2023-03-06T02:31:50.672Z,97967.60
2023-03-06T02:34:39.682Z,97968.31
2023-03-06T02:37:29.400Z,97969.05
2023-03-06T02:40:20.709Z,97975.42
2023-03-06T02:43:13.232Z,97976.67
2023-03-06T02:46:02.294Z,97970.92
2023-03-06T02:48:50.972Z,97969.64
2023-03-06T02:51:39.713Z,97967.44
2023-03-06T02:54:28.436Z,97967.02
2023-03-06T02:57:17.192Z,97972.08
2023-03-06T03:00:07.341Z,97969.74
2023-03-06T03:02:56.942Z,97973.89
2023-03-06T03:05:45.657Z,97968.69
2023-03-06T03:08:41.384Z,97970.44
2023-03-06T03:11:31.159Z,97965.30
2023-03-06T03:14:20.024Z,97964.01
2023-03-06T03:17:09.406Z,97961.27
2023-03-06T03:19:58.182Z,97954.31
2023-03-06T03:22:55.493Z,97959.14
2023-03-06T03:25:44.385Z,97955.59
2023-03-06T03:28:33.275Z,97948.55
2023-03-06T03:31:22.212Z,97950.02
2023-03-06T03:34:12.016Z,97948.15
2023-03-06T03:37:01.762Z,97945.88
2023-03-06T03:39:50.686Z,97948.34
2023-03-06T03:42:39.739Z,97947.72
2023-03-06T03:45:28.968Z,97941.17
2023-03-06T03:48:18.201Z,97939.91
2023-03-06T03:51:12.943Z,97938.52
2023-03-06T03:54:07.016Z,97937.20
2023-03-06T03:57:01.197Z,97936.13
2023-03-06T03:59:54.390Z,97934.31
2023-03-06T04:02:47.856Z,97932.83
2023-03-06T04:05:47.183Z,97928.96
2023-03-06T04:08:37.357Z,97929.49
2023-03-06T04:11:26.566Z,97924.85
2023-03-06T04:14:15.663Z,97924.55
2023-03-06T04:17:04.782Z,97917.96
2023-03-06T04:19:53.729Z,97914.70
2023-03-06T04:22:43.526Z,97910.02
2023-03-06T04:25:32.874Z,97909.85
2023-03-06T04:28:21.874Z,97909.99
2023-03-06T04:31:14.373Z,97910.31
2023-03-06T04:34:03.271Z,97903.45
2023-03-06T04:36:52.389Z,97891.79
2023-03-06T04:39:41.369Z,97890.96
2023-03-06T04:42:30.277Z,97894.75
2023-03-06T04:45:19.052Z,97898.86
2023-03-06T04:48:07.965Z,97895.94
2023-03-06T04:50:56.758Z,97893.86
2023-03-06T04:53:45.676Z,97899.46
2023-03-06T04:56:34.850Z,97899.64
2023-03-06T04:59:23.564Z,97898.02
2023-03-06T05:02:12.210Z,97892.45
2023-03-06T05:05:01.432Z,97896.38
2023-03-06T05:07:50.362Z,97893.83
2023-03-06T05:10:39.192Z,97894.58
2023-03-06T05:13:29.236Z,97895.20
2023-03-06T05:16:18.277Z,97886.20
2023-03-06T05:19:07.149Z,97882.80
2023-03-06T05:21:55.870Z,97877.33
2023-03-06T05:24:44.808Z,97875.45
2023-03-06T05:27:34.251Z,97873.36
2023-03-06T05:30:23.552Z,97863.48
2023-03-06T05:33:12.388Z,97848.87
2023-03-06T05:36:02.151Z,97838.90
2023-03-06T05:38:51.039Z,97841.81
2023-03-06T05:41:40.099Z,97844.91
2023-03-06T05:44:34.341Z,97844.84
2023-03-06T05:47:23.025Z,97840.52
2023-03-06T05:50:13.958Z,97852.62
2023-03-06T05:53:02.825Z,97853.35
2023-03-06T05:55:58.962Z,97856.48
2023-03-06T05:58:48.693Z,97862.22
2023-03-06T06:01:37.450Z,97860.67
2023-03-06T06:04:26.749Z,97859.78
2023-03-06T06:07:16.663Z,97863.50
2023-03-06T06:10:06.734Z,97864.52
2023-03-06T06:12:55.470Z,97866.59
2023-03-06T06:15:44.344Z,97863.41
2023-03-06T06:18:33.136Z,97865.89
2023-03-06T06:21:21.915Z,97858.58
2023-03-06T06:24:10.591Z,97861.61
2023-03-06T06:27:02.591Z,97856.23
2023-03-06T06:29:52.700Z,97851.43
2023-03-06T06:32:41.863Z,97853.39
2023-03-06T06:35:30.676Z,97855.52
2023-03-06T06:38:19.983Z,97857.52
2023-03-06T06:41:38.824Z,97854.48
2023-03-06T06:44:19.294Z,97852.15
2023-03-06T06:47:25.401Z,97846.67
2023-03-06T06:50:14.557Z,97842.38
2023-03-06T06:53:03.250Z,97841.26
2023-03-06T06:55:52.331Z,97841.09
2023-03-06T06:58:41.197Z,97840.42
2023-03-06T07:01:30.148Z,97841.03
2023-03-06T07:04:20.135Z,97841.09
2023-03-06T07:07:09.142Z,97842.54
2023-03-06T07:09:57.908Z,97843.86
2023-03-06T07:12:47.249Z,97839.89
2023-03-06T07:15:36.095Z,97836.98
2023-03-06T07:18:25.114Z,97830.84
2023-03-06T07:21:14.463Z,97833.91
2023-03-06T07:24:03.564Z,97828.80
2023-03-06T07:26:52.602Z,97825.54
2023-03-06T07:29:43.706Z,97818.52
2023-03-06T07:32:32.482Z,97817.15
2023-03-06T07:35:21.913Z,97817.24
2023-03-06T07:38:11.155Z,97812.73
2023-03-06T07:41:00.670Z,97805.61
2023-03-06T07:43:50.337Z,97803.23
2023-03-06T07:46:39.360Z,97805.55
2023-03-06T07:49:28.164Z,97804.80
2023-03-06T07:52:17.174Z,97807.17
2023-03-06T07:55:07.944Z,97809.04
2023-03-06T07:57:56.829Z,97812.86
2023-03-06T08:00:45.785Z,97813.71
2023-03-06T08:03:34.969Z,97813.33
2023-03-06T08:06:26.306Z,97814.54
2023-03-06T08:09:15.385Z,97811.16
2023-03-06T08:12:04.217Z,97805.64
2023-03-06T08:14:53.081Z,97804.25
2023-03-06T08:17:41.784Z,97800.03
2023-03-06T08:20:31.049Z,97802.73
2023-03-06T08:23:19.774Z,97798.80
2023-03-06T08:26:12.460Z,97799.97
2023-03-06T08:29:02.722Z,97799.47
2023-03-06T08:31:52.067Z,97801.88
2023-03-06T08:34:42.549Z,97801.19
2023-03-06T08:37:31.686Z,97799.67
2023-03-06T08:40:20.341Z,97794.59
2023-03-06T08:43:12.986Z,97795.53
2023-03-06T08:46:03.700Z,97792.68
2023-03-06T08:48:52.719Z,97789.22
2023-03-06T08:51:42.489Z,97786.67
2023-03-06T08:54:31.497Z,97789.90
2023-03-06T08:57:20.054Z,97785.81
2023-03-06T09:00:11.098Z,97790.73
2023-03-06T09:02:59.809Z,97789.05
2023-03-06T09:05:48.517Z,97790.61
2023-03-06T09:08:37.458Z,97792.60
2023-03-06T09:11:27.353Z,97790.09
2023-03-06T09:14:16.060Z,97790.27
2023-03-06T09:17:04.868Z,97791.96
2023-03-06T09:19:53.577Z,97788.92
2023-03-06T09:22:42.678Z,97788.63
2023-03-06T09:25:31.654Z,97789.44
2023-03-06T09:28:20.614Z,97791.17
2023-03-06T09:31:16.220Z,97791.40
2023-03-06T09:34:05.227Z,97793.97
2023-03-06T09:36:57.340Z,97788.08
2023-03-06T09:39:46.506Z,97790.12
2023-03-06T09:42:36.119Z,97788.30
2023-03-06T09:45:24.933Z,97782.65
2023-03-06T09:48:15.863Z,97780.97
2023-03-06T09:51:14.876Z,97782.80
2023-03-06T09:54:03.884Z,97780.35
2023-03-06T09:56:52.689Z,97784.88
2023-03-06T09:59:46.727Z,97774.33
2023-03-06T10:02:42.532Z,97783.27
2023-03-06T10:05:44.642Z,97790.70
2023-03-06T10:08:45.994Z,97789.34
2023-03-06T10:11:51.676Z,97787.04
2023-03-06T10:14:47.759Z,97788.43
2023-03-06T10:17:43.557Z,97780.48
2023-03-06T10:20:50.005Z,97781.48
2023-03-06T10:23:43.310Z,97775.92
2023-03-06T10:26:38.309Z,97774.49
2023-03-06T10:29:37.084Z,97768.45
2023-03-06T10:32:48.235Z,97773.96
2023-03-06T10:35:48.473Z,97771.97
2023-03-06T10:38:37.756Z,97766.69
2023-03-06T10:41:32.017Z,97771.43
2023-03-06T10:44:22.550Z,97771.98
2023-03-06T10:47:35.278Z,97767.79
2023-03-06T10:50:30.689Z,97775.48
2023-03-06T10:53:23.268Z,97765.60
2023-03-06T10:56:12.227Z,97770.52
2023-03-06T10:59:21.691Z,97766.09
2023-03-06T11:02:41.601Z,97765.64
2023-03-06T11:05:30.541Z,97767.27
2023-03-06T11:08:23.223Z,97768.46
2023-03-06T11:11:18.536Z,97770.76
2023-03-06T11:14:23.333Z,97767.04
2023-03-06T11:17:33.848Z,97766.86
2023-03-06T11:20:31.766Z,97762.83
2023-03-06T11:23:33.040Z,97759.77
2023-03-06T11:26:40.039Z,97759.08
2023-03-06T11:29:47.132Z,97757.02
2023-03-06T11:33:16.102Z,97754.87
2023-03-06T11:36:22.910Z,97755.66
2023-03-06T11:39:37.177Z,97755.86
2023-03-06T11:42:27.183Z,97754.90
2023-03-06T11:45:45.148Z,97755.44
2023-03-06T11:48:39.291Z,97748.58
2023-03-06T11:51:35.893Z,97752.84
2023-03-06T11:54:24.896Z,97746.55
2023-03-06T11:57:20.725Z,97742.48
2023-03-06T12:00:32.994Z,97740.86
2023-03-06T12:03:52.945Z,97741.03
2023-03-06T12:06:47.164Z,97737.02
2023-03-06T12:10:07.168Z,97737.25
2023-03-06T12:13:19.108Z,97737.55
2023-03-06T12:16:31.490Z,97733.07
2023-03-06T12:19:29.271Z,97728.24
2023-03-06T12:22:58.176Z,97729.70
2023-03-06T12:25:59.281Z,97729.39
2023-03-06T12:29:06.483Z,97734.80
2023-03-06T12:32:08.824Z,97727.59
2023-03-06T12:35:10.727Z,97729.40
2023-03-06T12:38:18.219Z,97726.02
2023-03-06T12:41:26.316Z,97728.39
2023-03-06T12:44:50.683Z,97724.58
2023-03-06T12:47:44.908Z,97722.77
2023-03-06T12:50:38.566Z,97721.23
2023-03-06T12:53:31.054Z,97723.13
2023-03-06T12:56:21.895Z,97724.84
2023-03-06T12:59:44.760Z,97721.55
2023-03-06T13:03:01.890Z,97720.25
2023-03-06T13:06:00.789Z,97718.55
2023-03-06T13:09:01.607Z,97717.83
2023-03-06T13:12:25.610Z,97717.48
2023-03-06T13:16:04.184Z,97717.11
2023-03-06T13:19:12.811Z,97715.48
2023-03-06T13:22:02.531Z,97713.42
2023-03-06T13:25:11.138Z,97708.61
2023-03-06T13:28:03.356Z,97704.26
2023-03-06T13:30:53.284Z,97701.16
2023-03-06T13:33:44.755Z,97695.83
2023-03-06T13:36:34.410Z,97692.70
2023-03-06T13:39:23.162Z,97690.30
2023-03-06T13:42:25.936Z,97684.36
2023-03-06T13:45:25.749Z,97683.12
2023-03-06T13:48:43.208Z,97678.23
2023-03-06T13:51:36.032Z,97677.19
2023-03-06T13:54:34.713Z,97672.79
2023-03-06T13:57:29.945Z,97667.36
2023-03-06T14:00:37.144Z,97659.02
2023-03-06T14:03:35.219Z,97655.94
2023-03-06T14:06:36.034Z,97654.49
2023-03-06T14:09:29.995Z,97647.63
2023-03-06T14:12:28.806Z,97649.61
2023-03-06T14:15:30.585Z,97647.27
2023-03-06T14:18:36.748Z,97644.33
2023-03-06T14:21:56.521Z,97641.95
2023-03-06T14:24:55.414Z,97638.98
2023-03-06T14:27:48.438Z,97640.52
2023-03-06T14:30:37.294Z,97640.87
2023-03-06T14:33:58.606Z,97641.37
2023-03-06T14:36:51.510Z,97645.98
2023-03-06T14:39:42.984Z,97647.69
2023-03-06T14:42:31.956Z,97651.60
2023-03-06T14:45:21.392Z,97654.19
2023-03-06T14:48:15.450Z,97656.80
2023-03-06T14:51:04.380Z,97658.30
2023-03-06T14:53:54.807Z,97653.70
2023-03-06T14:56:47.511Z,97652.60
2023-03-06T14:59:44.010Z,97648.59
2023-03-06T15:02:33.934Z,97649.05
2023-03-06T15:05:28.987Z,97649.45
2023-03-06T15:08:23.465Z,97650.54
2023-03-06T15:11:12.625Z,97647.45
2023-03-06T15:14:05.538Z,97648.77
2023-03-06T15:16:54.477Z,97645.07
2023-03-06T15:19:48.674Z,97643.81
2023-03-06T15:22:39.047Z,97648.10
2023-03-06T15:25:30.512Z,97649.77
2023-03-06T15:28:28.468Z,97650.32
2023-03-06T15:31:23.154Z,97645.60
2023-03-06T15:34:17.549Z,97648.22
2023-03-06T15:37:28.860Z,97648.92
2023-03-06T15:40:20.868Z,97645.17
2023-03-06T15:43:11.180Z,97645.39
2023-03-06T15:46:01.214Z,97649.47
2023-03-06T15:49:04.288Z,97650.33
2023-03-06T15:51:53.164Z,97651.25
2023-03-06T15:54:41.963Z,97653.30
2023-03-06T15:57:31.672Z,97658.27
2023-03-06T16:00:38.598Z,97659.16
2023-03-06T16:03:27.301Z,97660.42
2023-03-06T16:06:27.392Z,97663.95
2023-03-06T16:09:18.652Z,97670.59
2023-03-06T16:12:14.713Z,97685.06
2023-03-06T16:15:04.499Z,97682.81
2023-03-06T16:17:53.301Z,97685.33
2023-03-06T16:20:42.275Z,97678.76
2023-03-06T16:23:31.155Z,97677.69
2023-03-06T16:26:27.155Z,97662.56
2023-03-06T16:29:26.878Z,97660.84
2023-03-06T16:32:15.677Z,97658.88
2023-03-06T16:35:05.008Z,97657.73
2023-03-06T16:37:53.968Z,97661.86
2023-03-06T16:40:42.959Z,97664.34
2023-03-06T16:43:32.022Z,97667.39
2023-03-06T16:46:23.852Z,97661.07
2023-03-06T16:49:32.875Z,97662.09
2023-03-06T16:52:21.635Z,97663.14
2023-03-06T16:55:10.435Z,97663.23
2023-03-06T16:57:59.266Z,97662.13
2023-03-06T17:00:48.215Z,97665.69
2023-03-06T17:03:37.159Z,97670.67
2023-03-06T17:06:25.924Z,97671.73
2023-03-06T17:09:14.531Z,97670.29
2023-03-06T17:12:03.322Z,97668.83
2023-03-06T17:14:53.049Z,97670.52
2023-03-06T17:17:41.913Z,97669.05
2023-03-06T17:20:33.250Z,97666.92
2023-03-06T17:23:26.368Z,97667.96
2023-03-06T17:26:20.556Z,97664.50
2023-03-06T17:29:09.868Z,97664.36
2023-03-06T17:31:58.559Z,97665.04
2023-03-06T17:34:48.040Z,97665.25
2023-03-06T17:37:36.913Z,97668.27
2023-03-06T17:40:25.670Z,97664.62
2023-03-06T17:43:14.417Z,97664.69
2023-03-06T17:46:05.468Z,97668.77
2023-03-06T17:48:55.234Z,97668.05
2023-03-06T17:51:44.182Z,97673.91
2023-03-06T17:54:33.407Z,97677.21
2023-03-06T17:57:22.392Z,97675.27
2023-03-06T18:00:12.009Z,97673.03
2023-03-06T18:03:04.845Z,97667.58
2023-03-06T18:05:59.866Z,97669.09
2023-03-06T18:08:52.377Z,97668.65
2023-03-06T18:11:42.288Z,97668.35
2023-03-06T18:14:31.095Z,97667.38
2023-03-06T18:17:19.912Z,97668.19
2023-03-06T18:20:09.540Z,97668.21
2023-03-06T18:23:03.359Z,97670.72
2023-03-06T18:25:53.016Z,97666.43
2023-03-06T18:28:47.171Z,97661.94
2023-03-06T18:31:38.787Z,97661.80
2023-03-06T18:34:27.711Z,97661.14
2023-03-06T18:37:18.078Z,97661.32
2023-03-06T18:40:08.028Z,97660.82
2023-03-06T18:42:56.797Z,97664.23
2023-03-06T18:45:54.315Z,97664.98
2023-03-06T18:48:43.092Z,97664.16
2023-03-06T18:51:32.814Z,97662.11
2023-03-06T18:54:21.632Z,97662.23
2023-03-06T18:57:11.399Z,97667.41
2023-03-06T19:00:00.278Z,97663.64
2023-03-06T19:02:50.039Z,97662.14
2023-03-06T19:05:40.869Z,97658.13
2023-03-06T19:08:29.615Z,97659.19
2023-03-06T19:11:18.621Z,97655.35
2023-03-06T19:14:07.762Z,97655.80
2023-03-06T19:16:56.737Z,97657.08
2023-03-06T19:19:45.483Z,97660.27
2023-03-06T19:22:37.429Z,97656.02
2023-03-06T19:25:26.291Z,97655.17
2023-03-06T19:28:15.365Z,97655.34
2023-03-06T19:31:16.124Z,97655.23
2023-03-06T19:34:04.956Z,97657.68
2023-03-06T19:36:53.742Z,97654.46
2023-03-06T19:39:43.890Z,97656.96
2023-03-06T19:42:32.774Z,97654.89
2023-03-06T19:45:21.868Z,97657.02
2023-03-06T19:48:12.481Z,97661.03
2023-03-06T19:51:06.330Z,97660.44
2023-03-06T19:53:56.486Z,97657.04
2023-03-06T19:56:45.469Z,97655.03
2023-03-06T19:59:34.313Z,97656.44
2023-03-06T20:02:27.419Z,97651.20
2023-03-06T20:05:17.064Z,97653.00
2023-03-06T20:08:05.719Z,97655.86
2023-03-06T20:10:54.387Z,97655.77
2023-03-06T20:13:47.348Z,97658.55
2023-03-06T20:16:37.271Z,97660.67
2023-03-06T20:19:26.194Z,97659.17
2023-03-06T20:22:15.013Z,97658.81
2023-03-06T20:25:03.819Z,97656.20
2023-03-06T20:27:52.630Z,97655.08
2023-03-06T20:30:41.392Z,97649.86
2023-03-06T20:33:30.266Z,97653.44
2023-03-06T20:36:35.761Z,97655.21
2023-03-06T20:39:25.517Z,97660.19
2023-03-06T20:42:14.691Z,97654.02
2023-03-06T20:45:04.542Z,97660.00
2023-03-06T20:47:56.505Z,97655.39
2023-03-06T20:50:45.204Z,97653.69
2023-03-06T20:53:35.442Z,97656.07
2023-03-06T20:56:26.767Z,97652.78
2023-03-06T20:59:16.171Z,97655.98
2023-03-06T21:02:04.929Z,97658.87
2023-03-06T21:04:53.759Z,97658.29
2023-03-06T21:07:42.839Z,97658.45
2023-03-06T21:10:31.844Z,97657.75
2023-03-06T21:13:20.529Z,97647.70
2023-03-06T21:16:14.914Z,97649.77
2023-03-06T21:19:03.865Z,97648.91
2023-03-06T21:21:52.740Z,97648.79
2023-03-06T21:24:41.540Z,97649.77
2023-03-06T21:27:30.533Z,97648.65
2023-03-06T21:30:19.428Z,97647.35
2023-03-06T21:33:10.939Z,97645.34
2023-03-06T21:35:59.838Z,97648.70
2023-03-06T21:38:49.702Z,97652.77
2023-03-06T21:41:38.562Z,97655.91
2023-03-06T21:44:27.732Z,97658.41
2023-03-06T21:47:16.589Z,97656.63
2023-03-06T21:50:06.790Z,97657.52
2023-03-06T21:52:56.789Z,97660.14
2023-03-06T21:55:45.473Z,97660.45
2023-03-06T21:58:34.174Z,97663.92
2023-03-06T22:01:25.910Z,97660.85
2023-03-06T22:04:14.843Z,97660.06
2023-03-06T22:07:03.709Z,97657.48
2023-03-06T22:09:53.844Z,97656.92
2023-03-06T22:12:42.914Z,97658.71
2023-03-06T22:15:31.786Z,97658.98
2023-03-06T22:18:20.472Z,97657.83
2023-03-06T22:21:12.192Z,97656.36
2023-03-06T22:24:01.005Z,97657.27
2023-03-06T22:26:50.125Z,97661.19
2023-03-06T22:29:39.014Z,97666.20
2023-03-06T22:32:27.783Z,97663.73
2023-03-06T22:35:16.819Z,97660.15
2023-03-06T22:38:05.586Z,97657.84
2023-03-06T22:40:57.283Z,97662.32
2023-03-06T22:43:45.999Z,97663.29
2023-03-06T22:46:34.820Z,97662.81
2023-03-06T22:49:23.717Z,97667.76
2023-03-06T22:52:15.130Z,97664.86
2023-03-06T22:55:04.605Z,97663.48
2023-03-06T22:57:53.736Z,97666.80
2023-03-06T23:00:42.476Z,97662.47
2023-03-06T23:03:31.568Z,97664.91
2023-03-06T23:06:22.447Z,97659.20
2023-03-06T23:09:21.539Z,97666.88
2023-03-06T23:12:28.972Z,97666.50
2023-03-06T23:15:37.184Z,97665.94
2023-03-06T23:18:44.897Z,97667.38
2023-03-06T23:21:52.010Z,97667.59
2023-03-06T23:24:59.478Z,97669.08
2023-03-06T23:27:48.519Z,97671.13
2023-03-06T23:30:41.399Z,97672.34
2023-03-06T23:33:30.269Z,97675.04
2023-03-06T23:36:19.421Z,97677.44
2023-03-06T23:39:08.956Z,97678.67
2023-03-06T23:41:57.841Z,97684.33
2023-03-06T23:44:46.784Z,97684.73
2023-03-06T23:47:35.539Z,97687.67
2023-03-06T23:50:24.946Z,97687.02
2023-03-06T23:53:14.579Z,97689.31
2023-03-06T23:56:06.408Z,97691.73
2023-03-06T23:58:55.551Z,97693.38
